LFKJLIEE

Guest
Details From LFKJ - Napoleon Bonaparte
To LIEE - Cagliari Elmas
Flight Number -
Tags generated
Created
Modified
Stats Distance 161 nm / 298 km
Max Altitude 15,000 ft / 4,572 m
Waypoints 3
Social Downloads 1
Likes 0
Share VATSIM

Download

Looking for another format? Having issues loading an existing format? Contact us
Advertisement - Login to hide

Notes

Basic altitude profile: - Ascent Rate: 2500ft/min - Ascent Speed: 250kts - Cruise Altitude: 15000ft - Cruise Speed: 400kts - Descent Rate: 1500ft/min - Descent Speed: 250kts

Route

LFKJ MINKA LIEE

ID Type Via Altitude Latitude Longitude Leg Dist Tot Dist Heading (true) Name
O LFKJ APT - 0 ft / 0 m 41.92289˚ 8.79959˚ - 0 nm - Napoleon Bonaparte
MINKA FIX - 15,000 ft / 4,572 m 40.81917˚ 8.85556˚ 66 nm 66 nm 178° / 178° -
O LIEE APT - 0 ft / 0 m 39.25147˚ 9.05429˚ 94 nm 160 nm 174° / 175° Cagliari Elmas

Altitude Profile

Advertisement - Login to hide

LFKJ

Details ICAO LFKJ (AJA)
Name Napoleon Bonaparte
Region France
Timezone Europe/Paris (UTC+2.0)
Stats Elevation 18 ft / 5 m (AMSL)
Location 41.922886° 8.799587°
Runways 2
Magnetic Variation 2.376° E

METAR

LFKJ 212100Z AUTO 00000KT 6000 FEW039 BKN054 OVC064 17/16 Q1012 NOSIG

Decode

TAF

TAF LFKJ 212000Z 2121/2221 VRB03KT 9999 SCT080 BKN200 PROB30 TEMPO 2123/2206 SHRA SCT020TCU BKN040 BECMG 2208/2210 24008KT BECMG 2218/2221 VRB03KT

Decode

Departure Runways

ID Width Length Bearing (true) Bearing (mag) Surface Threshold Offset Overrun Length
02 180 ft / 55 m 7,899 ft / 2,408 m 24.94° 22.56° Asphalt 0 ft / 0 m 164 ft / 50 m
10 98 ft / 30 m 3,447 ft / 1,051 m 94.35° 91.97° Concrete 0 ft / 0 m 164 ft / 50 m
20 180 ft / 55 m 7,899 ft / 2,408 m 204.95° 202.57° Asphalt 745 ft / 227 m 230 ft / 70 m
28 98 ft / 30 m 3,447 ft / 1,051 m 274.36° 271.98° Concrete 213 ft / 65 m 0 ft / 0 m

LIEE

Details ICAO LIEE (CAG)
Name Cagliari Elmas
Region Italy
Timezone Europe/Rome (UTC+2.0)
Stats Elevation 13 ft / 4 m (AMSL)
Location 39.251475° 9.054291°
Runways 1
Magnetic Variation 2.342° E

METAR

LIEE 212050Z 14004KT 100V160 9999 SCT015 17/15 Q1013

Decode

TAF

TAF LIEE 211700Z 2118/2218 VRB04KT 9999 SCT030 BECMG 2209/2211 29010KT

Decode

Destination Runways

ID Width Length Bearing (true) Bearing (mag) Surface Threshold Offset Overrun Length
14 148 ft / 45 m 9,157 ft / 2,791 m 138.08° 135.74° Asphalt 0 ft / 0 m 187 ft / 57 m
32 148 ft / 45 m 9,157 ft / 2,791 m 318.09° 315.75° Asphalt 0 ft / 0 m 0 ft / 0 m

Approach Navaids

Runway Type Ident Frequency Range Bearing (true) Bearing (mag) Slope Elevation
32 Localiser IEL 109.50 MHz 18 nm / 33 km 318.12° 315.78° - 7 ft / 2 m (AMSL)
32 Glidescope IEL 109.50 MHz 10 nm / 19 km 318.08° 315.74° 3.00° 9 ft / 3 m (AMSL)
32 DME IEL 109.50 MHz 18 nm / 33 km - - - 26 ft / 8 m (AMSL)

Popular Alternatives